Terminal Aerodrome Forecast
Issued by NWS

Home | Current Version | Previous Version | Graphics & Text | Print | Product List | Glossary On
Versions: 1 2 3 4 5 6 7 8 9 10 11 12 13 14 15 16 17 18 19 20 21 22 23 24 25 26 27 28 29 30 31 32 33 34 35 36 37 38
692
FTUS43 KGRB 270520
TAFATW
TAF
KATW 270520Z 2706/2806 31009KT 5SM -RA BR OVC006
     FM270900 35008KT 4SM RA BR OVC006
      TEMPO 2710/2714 2SM RA BR OVC004
     FM271600 26014G22KT 5SM -RA BR OVC009
     FM272000 26015G25KT P6SM OVC015
     FM272200 25013G21KT P6SM OVC025
     FM280100 25012G19KT P6SM BKN035=

USA.gov is the U.S. government's official web portal to all federal, state and local government web resources and services.